Time;durP1;ratioP1;P1;durP2;ratioP2;P2;SDS_P1;SDS_P2;PMS_P1;PMS_P2;Temp;Humidity;BMP_temperature;BMP_pressure;BME280_temperature;BME280_humidity;BME280_pressure;Samples;Min_cycle;Max_cycle;Signal;HPM_P1;HPM_P2
2022/03/01 00:01:54;;;;;;;17.85;9.13;;;;;;;3.07;79.53;101250.50;4971450;28;20035;-60
2022/03/01 00:04:21;;;;;;;15.30;7.57;;;;;;;3.05;78.96;101252.25;4972208;28;20082;-60
2022/03/01 00:06:46;;;;;;;16.80;7.72;;;;;;;3.06;78.62;101251.38;4971883;28;20038;-60
2022/03/01 00:09:12;;;;;;;16.55;8.48;;;;;;;3.06;78.27;101259.25;4970288;28;20022;-60
2022/03/01 00:11:38;;;;;;;14.73;8.13;;;;;;;2.96;78.46;101252.06;4971820;28;20070;-60
2022/03/01 00:14:04;;;;;;;13.27;8.90;;;;;;;2.95;78.02;101266.06;4971822;28;20130;-60
2022/03/01 00:16:30;;;;;;;16.50;8.35;;;;;;;2.98;78.69;101263.50;4970723;28;20542;-61
2022/03/01 00:18:59;;;;;;;17.70;9.43;;;;;;;2.94;79.26;101264.28;4970930;28;20054;-61
2022/03/01 00:21:25;;;;;;;19.13;8.23;;;;;;;2.88;79.98;101274.69;4972152;28;20517;-61
2022/03/01 00:23:51;;;;;;;17.17;7.93;;;;;;;2.82;80.31;101269.34;4971611;28;20149;-60
2022/03/01 00:26:16;;;;;;;14.65;7.50;;;;;;;2.72;80.36;101268.25;4970719;28;20114;-61
2022/03/01 00:28:43;;;;;;;18.27;8.68;;;;;;;2.69;80.31;101274.34;4971120;28;20027;-61
2022/03/01 00:31:08;;;;;;;15.93;8.85;;;;;;;2.65;81.72;101276.91;4970552;28;20069;-61
2022/03/01 00:33:33;;;;;;;15.77;8.43;;;;;;;2.56;81.97;101269.72;4971593;28;20030;-61
2022/03/01 00:35:59;;;;;;;18.30;8.32;;;;;;;2.40;82.22;101259.78;4971049;28;20027;-61
2022/03/01 00:38:25;;;;;;;15.15;7.78;;;;;;;2.43;81.70;101275.59;4971445;28;20105;-61
2022/03/01 00:40:50;;;;;;;15.13;8.40;;;;;;;2.43;82.93;101278.22;4970796;28;20079;-60
2022/03/01 00:43:16;;;;;;;14.75;8.20;;;;;;;2.43;82.63;101269.44;4970821;28;20035;-61
2022/03/01 00:45:41;;;;;;;15.43;7.60;;;;;;;2.44;82.81;101272.09;4970455;28;20030;-61
2022/03/01 00:48:07;;;;;;;14.13;7.50;;;;;;;2.38;82.22;101272.00;4970441;28;20035;-61
2022/03/01 00:50:32;;;;;;;15.27;8.43;;;;;;;2.42;83.21;101268.56;4969366;28;20032;-61
2022/03/01 00:52:58;;;;;;;15.90;8.38;;;;;;;2.36;82.36;101273.69;4971238;28;20066;-61
2022/03/01 00:55:23;;;;;;;16.27;7.60;;;;;;;2.25;82.26;101271.69;4971152;28;20030;-61
2022/03/01 00:57:48;;;;;;;15.45;8.13;;;;;;;2.12;81.17;101275.81;4971263;28;20089;-60
2022/03/01 01:00:14;;;;;;;16.27;8.40;;;;;;;2.05;82.55;101265.16;4969796;28;20030;-61
2022/03/01 01:02:41;;;;;;;14.75;7.57;;;;;;;2.13;82.90;101268.81;4970745;28;20049;-60
2022/03/01 01:05:06;;;;;;;12.68;7.65;;;;;;;2.15;83.24;101272.34;4970730;28;20604;-61
2022/03/01 01:07:32;;;;;;;20.15;7.85;;;;;;;2.14;83.47;101276.72;4970337;28;20126;-60
2022/03/01 01:09:58;;;;;;;15.02;8.07;;;;;;;2.11;83.57;101276.66;4970463;28;20109;-60
2022/03/01 01:12:23;;;;;;;15.35;8.13;;;;;;;2.18;83.63;101277.66;4971308;28;20026;-60
2022/03/01 01:14:49;;;;;;;16.85;7.88;;;;;;;2.18;84.67;101283.81;4970697;28;20114;-61
2022/03/01 01:17:15;;;;;;;14.82;8.27;;;;;;;2.21;83.96;101286.50;4970267;28;20053;-61
2022/03/01 01:19:41;;;;;;;17.00;8.13;;;;;;;2.19;84.39;101285.56;4970424;28;20478;-60
2022/03/01 01:24:50;;;;;;;15.93;8.35;;;;;;;2.12;84.93;101275.81;4970608;28;20127;-60
2022/03/01 01:27:16;;;;;;;15.23;8.02;;;;;;;2.13;85.13;101280.19;4970689;28;20499;-60
2022/03/01 01:29:41;;;;;;;16.17;7.47;;;;;;;2.19;84.73;101280.31;4970890;28;20042;-60
2022/03/01 01:32:09;;;;;;;15.65;7.70;;;;;;;2.13;85.11;101285.44;4969828;28;20456;-60
2022/03/01 01:34:35;;;;;;;12.68;7.43;;;;;;;2.07;85.20;101281.81;4971027;28;20027;-61
2022/03/01 01:37:00;;;;;;;17.15;8.95;;;;;;;1.97;84.70;101278.13;4970485;28;20084;-61
2022/03/01 01:39:25;;;;;;;15.82;8.48;;;;;;;2.01;86.03;101284.31;4969936;28;20138;-61
2022/03/01 01:41:51;;;;;;;13.20;8.27;;;;;;;2.00;86.41;101277.28;4970197;28;20023;-61
2022/03/01 01:44:16;;;;;;;17.33;8.80;;;;;;;1.99;87.19;101279.03;4970431;28;20058;-61
2022/03/01 01:46:42;;;;;;;16.38;8.57;;;;;;;1.99;85.96;101286.91;4970412;28;20027;-61
2022/03/01 01:49:07;;;;;;;18.35;8.50;;;;;;;1.95;86.56;101285.06;4970716;28;20085;-61
2022/03/01 01:51:33;;;;;;;15.57;8.50;;;;;;;1.93;86.20;101284.13;4970722;28;20074;-60
2022/03/01 01:53:58;;;;;;;17.02;8.30;;;;;;;1.96;86.24;101292.06;4970722;28;20039;-60
2022/03/01 01:56:24;;;;;;;16.38;8.23;;;;;;;1.98;86.35;101289.47;4972677;28;20031;-60
2022/03/01 01:58:49;;;;;;;12.60;7.65;;;;;;;1.98;86.04;101294.72;4973438;28;20034;-60
2022/03/01 02:01:15;;;;;;;13.85;8.20;;;;;;;1.93;85.80;101284.13;4973421;28;20086;-60
2022/03/01 02:03:40;;;;;;;14.63;7.97;;;;;;;1.93;85.83;101286.75;4974963;28;20379;-60
2022/03/01 02:06:06;;;;;;;14.73;7.20;;;;;;;1.92;86.64;101289.34;4974490;28;20498;-60
2022/03/01 02:08:33;;;;;;;14.60;7.45;;;;;;;1.86;86.71;101289.22;4973639;28;20026;-60
2022/03/01 02:10:59;;;;;;;18.13;7.72;;;;;;;1.75;86.80;101283.72;4973278;28;20045;-60
2022/03/01 02:13:25;;;;;;;14.23;7.63;;;;;;;1.70;86.69;101287.97;4971789;28;20043;-60
2022/03/01 02:15:51;;;;;;;13.23;8.23;;;;;;;1.71;87.04;101284.53;4958557;28;20041;-60
2022/03/01 02:18:18;;;;;;;16.73;8.48;;;;;;;1.69;86.75;101294.06;4973481;28;20414;-60
2022/03/01 02:20:44;;;;;;;13.65;8.38;;;;;;;1.70;86.72;101281.88;4973292;28;20406;-60
2022/03/01 02:23:09;;;;;;;16.45;8.13;;;;;;;1.66;87.22;101293.13;4973998;28;20034;-60
2022/03/01 02:25:36;;;;;;;18.17;8.55;;;;;;;1.70;86.15;101285.34;4972627;28;20027;-60
2022/03/01 02:28:01;;;;;;;15.73;8.27;;;;;;;1.71;86.63;101279.28;4973100;28;20697;-60
2022/03/01 02:30:27;;;;;;;17.23;8.52;;;;;;;1.76;86.86;101282.88;4972867;28;20035;-60
2022/03/01 02:32:52;;;;;;;12.77;8.18;;;;;;;1.72;87.27;101282.75;4972757;28;20019;-60
2022/03/01 02:35:18;;;;;;;18.13;8.10;;;;;;;1.70;86.29;101285.34;4972939;28;20049;-60
2022/03/01 02:37:44;;;;;;;19.00;8.50;;;;;;;1.61;86.47;101282.53;4972494;28;20031;-60
2022/03/01 02:40:10;;;;;;;16.23;8.93;;;;;;;1.52;86.85;101269.19;4972153;28;20035;-60
2022/03/01 02:42:36;;;;;;;16.50;8.85;;;;;;;1.59;86.53;101283.31;4973493;28;20041;-60
2022/03/01 02:45:04;;;;;;;12.45;8.15;;;;;;;1.52;87.71;101292.78;4958891;28;20150;-60
2022/03/01 02:47:29;;;;;;;14.35;7.75;;;;;;;1.54;88.23;101291.09;4968329;28;20031;-60
2022/03/01 02:49:54;;;;;;;18.67;9.00;;;;;;;1.53;87.75;101293.69;4972178;28;20086;-60
2022/03/01 02:52:20;;;;;;;15.73;8.07;;;;;;;1.57;87.44;101285.91;4971863;28;20019;-60
2022/03/01 02:54:46;;;;;;;18.20;9.45;;;;;;;1.53;87.81;101284.09;4970178;28;20022;-60
2022/03/01 02:57:11;;;;;;;14.77;7.82;;;;;;;1.48;87.59;101284.81;4972947;28;20070;-60
2022/03/01 02:59:36;;;;;;;15.02;8.90;;;;;;;1.43;87.56;101284.72;4972384;28;20050;-60
2022/03/01 03:02:04;;;;;;;19.33;9.70;;;;;;;1.35;87.64;101291.50;4970702;28;20043;-60
2022/03/01 03:04:30;;;;;;;17.27;9.27;;;;;;;1.22;87.91;101292.91;4971314;28;20031;-60
2022/03/01 03:06:56;;;;;;;15.02;8.25;;;;;;;1.24;88.67;101292.97;4970687;28;20026;-60
2022/03/01 03:09:22;;;;;;;12.82;8.15;;;;;;;1.17;87.84;101291.06;4970873;28;20023;-60
2022/03/01 03:11:47;;;;;;;18.83;9.30;;;;;;;1.10;88.14;101283.88;4973219;28;20497;-60
2022/03/01 03:14:13;;;;;;;17.55;8.73;;;;;;;1.05;87.72;101282.88;4964985;28;20019;-60
2022/03/01 03:16:38;;;;;;;18.33;8.45;;;;;;;1.02;88.26;101281.03;4953715;28;20121;-60
2022/03/01 03:19:04;;;;;;;14.52;8.68;;;;;;;1.04;88.91;101286.31;4953147;28;20077;-60
2022/03/01 03:21:29;;;;;;;18.98;9.05;;;;;;;0.96;88.29;101277.38;4969086;28;20026;-60
2022/03/01 03:23:55;;;;;;;16.33;7.88;;;;;;;0.95;89.25;101280.88;4972267;28;20442;-60
2022/03/01 03:26:20;;;;;;;16.33;8.85;;;;;;;0.94;88.49;101284.34;4972047;28;20047;-60
2022/03/01 03:28:46;;;;;;;17.40;7.97;;;;;;;0.97;88.38;101271.31;4972429;28;20546;-60
2022/03/01 03:31:12;;;;;;;16.33;7.60;;;;;;;0.96;88.94;101273.03;4970976;28;20046;-60
2022/03/01 03:33:38;;;;;;;16.30;8.50;;;;;;;0.94;88.71;101271.25;4971847;28;20073;-60
2022/03/01 03:36:04;;;;;;;16.92;8.00;;;;;;;0.91;88.69;101273.75;4972653;28;20039;-60
2022/03/01 03:38:29;;;;;;;13.60;7.97;;;;;;;0.90;88.22;101267.66;4972472;28;20027;-60
2022/03/01 03:40:55;;;;;;;15.85;8.55;;;;;;;0.89;89.04;101265.00;4971886;28;20027;-60
2022/03/01 03:43:20;;;;;;;16.95;8.15;;;;;;;0.75;89.11;101253.25;4971163;28;20122;-60
2022/03/01 03:45:46;;;;;;;12.10;7.78;;;;;;;0.65;89.39;101244.28;4952599;29;20019;-60
2022/03/01 03:48:12;;;;;;;20.25;8.20;;;;;;;0.75;89.41;101272.50;4951879;28;20023;-60
2022/03/01 03:50:37;;;;;;;11.65;7.38;;;;;;;0.61;89.34;101268.59;4952394;29;20039;-60
2022/03/01 03:53:03;;;;;;;17.38;8.77;;;;;;;0.60;89.36;101265.94;4964609;28;20026;-60
2022/03/01 03:55:28;;;;;;;13.68;7.43;;;;;;;0.65;90.33;101257.38;4972047;28;20027;-60
2022/03/01 03:57:54;;;;;;;17.75;8.93;;;;;;;0.67;90.00;101262.66;4972069;28;20022;-60
2022/03/01 04:00:20;;;;;;;19.05;8.25;;;;;;;0.66;90.35;101266.13;4970584;28;20026;-60
2022/03/01 04:02:47;;;;;;;14.80;7.47;;;;;;;0.70;90.04;101267.97;4972362;28;20467;-60
2022/03/01 04:05:14;;;;;;;13.90;7.38;;;;;;;0.68;90.48;101264.41;4970973;28;20416;-60
2022/03/01 04:07:41;;;;;;;13.48;9.15;;;;;;;0.70;90.24;101268.84;4971223;28;20026;-60
2022/03/01 04:10:08;;;;;;;13.90;6.95;;;;;;;0.74;90.17;101264.59;4970195;28;20057;-60
2022/03/01 04:12:36;;;;;;;16.73;7.93;;;;;;;0.74;90.48;101264.59;4971938;28;20034;-61
2022/03/01 04:15:03;;;;;;;16.23;8.77;;;;;;;0.69;90.38;101272.31;4962202;28;20023;-60
2022/03/01 04:17:28;;;;;;;12.23;7.55;;;;;;;0.71;90.36;101270.63;4970788;28;20190;-60
2022/03/01 04:19:54;;;;;;;19.00;9.50;;;;;;;0.69;90.36;101255.72;4971063;28;20058;-61
2022/03/01 04:22:20;;;;;;;17.38;8.27;;;;;;;0.71;89.81;101261.91;4970906;28;20034;-61
2022/03/01 04:24:45;;;;;;;18.73;8.68;;;;;;;0.65;90.02;101264.34;4971598;28;20039;-60
2022/03/01 04:27:10;;;;;;;14.15;8.18;;;;;;;0.62;90.08;101261.63;4971562;28;20351;-60
2022/03/01 04:29:36;;;;;;;15.98;8.00;;;;;;;0.62;90.12;101259.91;4971160;28;20026;-60
2022/03/01 04:32:02;;;;;;;19.30;9.27;;;;;;;0.53;90.20;101253.56;4970607;28;20483;-60
2022/03/01 04:34:28;;;;;;;16.10;8.55;;;;;;;0.50;90.68;101258.69;4971294;28;20033;-60
2022/03/01 04:36:53;;;;;;;17.58;8.73;;;;;;;0.50;91.22;101256.06;4970630;28;20023;-60
2022/03/01 04:39:19;;;;;;;17.65;8.07;;;;;;;0.47;90.73;101253.38;4970911;28;20027;-60
2022/03/01 04:41:44;;;;;;;14.30;7.85;;;;;;;0.40;91.12;101252.31;4970920;28;20600;-61
2022/03/01 04:44:10;;;;;;;16.65;8.15;;;;;;;0.40;91.00;101251.41;4971338;28;20026;-61
2022/03/01 04:46:35;;;;;;;17.20;8.50;;;;;;;0.34;91.61;101246.03;4970897;28;20023;-61
2022/03/01 04:49:02;;;;;;;18.10;8.15;;;;;;;0.36;91.66;101246.97;4971350;28;20186;-61
2022/03/01 04:51:27;;;;;;;16.05;7.78;;;;;;;0.38;91.53;101240.03;4970731;28;20035;-61
2022/03/01 04:53:53;;;;;;;18.02;8.48;;;;;;;0.34;91.38;101240.78;4971203;28;20030;-61
2022/03/01 04:56:20;;;;;;;16.23;8.60;;;;;;;0.33;91.04;101241.66;4971410;28;20033;-61
2022/03/01 04:58:46;;;;;;;22.08;9.40;;;;;;;0.31;91.28;101241.59;4970871;28;20034;-61
2022/03/01 05:01:11;;;;;;;13.07;7.65;;;;;;;0.26;91.34;101245.81;4969180;28;20035;-61
2022/03/01 05:03:36;;;;;;;13.63;7.88;;;;;;;0.26;91.93;101245.81;4968444;28;20038;-61
2022/03/01 05:06:02;;;;;;;20.08;8.20;;;;;;;0.22;91.69;101240.44;4971274;28;20089;-61
2022/03/01 05:08:30;;;;;;;19.42;8.30;;;;;;;0.24;91.26;101246.59;4970420;28;20030;-60
2022/03/01 05:10:57;;;;;;;17.73;8.43;;;;;;;0.23;92.02;101252.69;4970479;28;20027;-60
2022/03/01 05:13:22;;;;;;;15.45;8.07;;;;;;;0.21;91.86;101262.22;4969279;28;20049;-60
2022/03/01 05:15:48;;;;;;;15.32;7.75;;;;;;;0.24;91.75;101247.50;4951296;28;20031;-60
2022/03/01 05:18:13;;;;;;;14.70;7.78;;;;;;;0.27;91.57;101251.91;4951408;29;20464;-60
2022/03/01 05:20:39;;;;;;;18.80;9.40;;;;;;;0.26;90.97;101252.78;4951184;28;20115;-60
2022/03/01 05:23:04;;;;;;;11.80;7.15;;;;;;;0.21;90.70;101260.50;4965520;28;20026;-60
2022/03/01 05:25:29;;;;;;;17.90;8.60;;;;;;;0.18;91.32;101255.19;4971243;28;20031;-60
2022/03/01 05:27:55;;;;;;;18.67;9.38;;;;;;;0.19;91.80;101266.53;4970528;28;20019;-60
2022/03/01 05:30:23;;;;;;;16.02;8.65;;;;;;;0.12;91.40;101267.19;4971075;28;20019;-60
2022/03/01 05:32:52;;;;;;;23.33;8.93;;;;;;;-0.02;91.24;101264.19;4973737;28;20074;-60
2022/03/01 05:35:21;;;;;;;18.98;8.48;;;;;;;-0.14;91.42;101271.66;4974100;28;20035;-60
2022/03/01 05:37:49;;;;;;;13.02;7.90;;;;;;;-0.31;91.59;101252.84;4974252;28;20042;-60
2022/03/01 05:40:16;;;;;;;27.67;10.50;;;;;;;-0.17;92.11;101272.47;4974047;28;20093;-60
2022/03/01 05:42:43;;;;;;;27.73;7.70;;;;;;;-0.17;92.51;101264.63;4974468;28;20019;-60
2022/03/01 05:45:11;;;;;;;16.73;9.13;;;;;;;-0.12;92.55;101276.09;4959666;28;20019;-62
2022/03/01 05:47:36;;;;;;;15.32;7.70;;;;;;;-0.07;92.48;101279.72;4953730;28;20559;-62
2022/03/01 05:50:03;;;;;;;18.55;8.65;;;;;;;-0.10;92.42;101279.63;4971873;28;20133;-61
2022/03/01 05:52:29;;;;;;;16.92;7.75;;;;;;;-0.09;92.45;101281.41;4974290;28;20070;-61
2022/03/01 05:54:54;;;;;;;13.48;7.88;;;;;;;-0.11;91.97;101282.19;4974053;28;20035;-61
2022/03/01 05:57:20;;;;;;;15.75;7.95;;;;;;;-0.06;92.31;101285.84;4974040;28;20027;-61
2022/03/01 05:59:45;;;;;;;17.92;8.02;;;;;;;-0.03;91.91;101278.97;4973946;28;20066;-61
2022/03/01 06:02:10;;;;;;;15.32;7.60;;;;;;;-0.09;91.48;101286.66;4973561;28;20035;-61
2022/03/01 06:04:36;;;;;;;14.95;7.10;;;;;;;-0.09;91.96;101286.66;4973023;28;20081;-61
2022/03/01 06:07:01;;;;;;;15.20;7.82;;;;;;;-0.12;91.75;101285.66;4973053;28;20081;-61
2022/03/01 06:09:27;;;;;;;14.25;7.90;;;;;;;-0.09;92.06;101304.06;4973025;28;20031;-61
2022/03/01 06:11:52;;;;;;;16.85;8.05;;;;;;;-0.08;92.35;101303.19;4974060;28;20026;-61
2022/03/01 06:14:18;;;;;;;14.48;8.15;;;;;;;-0.04;91.90;101302.47;4964835;28;20383;-61
2022/03/01 06:16:47;;;;;;;19.92;8.20;;;;;;;-0.01;91.75;101310.41;4954292;28;20064;-61
2022/03/01 06:19:12;;;;;;;15.30;8.23;;;;;;;-0.07;91.73;101305.84;4954588;28;20598;-61
2022/03/01 06:21:37;;;;;;;18.20;8.23;;;;;;;-0.05;91.76;101300.72;4965398;28;20023;-61
2022/03/01 06:24:04;;;;;;;12.93;7.15;;;;;;;-0.10;91.08;101284.84;4973677;28;20027;-61
2022/03/01 06:26:31;;;;;;;13.68;7.05;;;;;;;0.00;91.65;101299.97;4973380;28;20386;-60
2022/03/01 06:28:56;;;;;;;20.08;7.28;;;;;;;0.11;91.61;101297.69;4973689;28;20475;-61
2022/03/01 06:31:22;;;;;;;12.68;7.15;;;;;;;0.17;91.63;101304.81;4972689;28;20045;-61
2022/03/01 06:33:47;;;;;;;15.75;7.47;;;;;;;0.21;91.71;101301.47;4973208;28;20480;-61
2022/03/01 06:36:13;;;;;;;14.90;7.30;;;;;;;0.29;91.11;101297.34;4972256;28;20035;-60
2022/03/01 06:38:38;;;;;;;18.05;8.10;;;;;;;0.38;90.52;101290.63;4973918;28;20042;-61
2022/03/01 06:41:04;;;;;;;15.30;7.07;;;;;;;0.47;89.47;101295.25;4972593;28;20033;-61
2022/03/01 06:43:29;;;;;;;15.95;8.05;;;;;;;0.49;89.39;101291.84;4972805;28;20058;-61
2022/03/01 06:45:55;;;;;;;14.07;7.50;;;;;;;0.54;89.08;101291.97;4973527;28;20019;-61
2022/03/01 06:48:20;;;;;;;14.82;7.43;;;;;;;0.60;88.25;101302.59;4973158;28;20328;-61
2022/03/01 06:50:46;;;;;;;15.30;7.55;;;;;;;0.69;88.00;101305.47;4971741;28;20023;-61
2022/03/01 06:53:13;;;;;;;22.15;8.82;;;;;;;0.77;88.44;101306.56;4973203;28;20035;-61
2022/03/01 06:55:42;;;;;;;22.65;9.63;;;;;;;0.85;88.07;101310.28;4973002;28;20033;-61
2022/03/01 06:58:08;;;;;;;29.75;13.43;;;;;;;0.94;87.46;101310.53;4973011;28;20054;-61
2022/03/01 07:00:33;;;;;;;26.02;11.18;;;;;;;1.01;87.43;101313.34;4969997;28;20039;-61
2022/03/01 07:02:58;;;;;;;28.98;14.00;;;;;;;1.08;87.63;101309.16;4972706;28;20475;-61
2022/03/01 07:05:24;;;;;;;23.38;10.70;;;;;;;1.15;86.41;101311.94;4973047;28;20037;-61
2022/03/01 07:07:49;;;;;;;19.80;8.05;;;;;;;1.32;85.90;101307.13;4972369;28;20065;-61
2022/03/01 07:10:15;;;;;;;16.02;7.95;;;;;;;1.37;85.68;101299.41;4971945;28;20034;-61
2022/03/01 07:12:43;;;;;;;19.77;8.82;;;;;;;1.58;84.74;101308.69;4972893;28;20042;-61
2022/03/01 07:15:09;;;;;;;13.60;8.32;;;;;;;2.45;91.45;101310.66;4973451;28;20034;-61
2022/03/01 07:17:34;;;;;;;19.08;8.93;;;;;;;5.42;82.59;101306.25;4971536;28;20599;-61
2022/03/01 07:20:00;;;;;;;14.52;7.68;;;;;;;8.43;63.54;101313.34;4972511;28;20118;-61
2022/03/01 07:22:26;;;;;;;16.65;7.63;;;;;;;10.78;51.24;101297.22;4971119;28;20395;-61
2022/03/01 07:24:51;;;;;;;15.57;7.25;;;;;;;12.60;44.63;101300.38;4972771;28;20101;-61
2022/03/01 07:27:17;;;;;;;15.13;7.55;;;;;;;14.09;40.69;101302.22;4970935;28;20023;-61
2022/03/01 07:29:42;;;;;;;12.35;6.40;;;;;;;14.78;38.32;101312.81;4969534;28;20054;-61
2022/03/01 07:32:12;;;;;;;14.23;7.72;;;;;;;15.35;35.89;101308.34;4966901;28;20499;-61
2022/03/01 07:34:37;;;;;;;13.05;6.50;;;;;;;15.85;35.49;101316.63;4973777;28;20034;-61
2022/03/01 07:37:04;;;;;;;16.65;6.22;;;;;;;16.11;34.83;101279.03;4971356;28;20033;-61
2022/03/01 07:39:30;;;;;;;12.27;6.60;;;;;;;16.45;33.16;101319.84;4970753;28;20105;-60
2022/03/01 07:41:55;;;;;;;16.25;6.68;;;;;;;16.06;33.25;101311.41;4962811;28;20183;-60
2022/03/01 07:44:21;;;;;;;15.18;6.22;;;;;;;16.15;32.60;101315.56;4961409;28;20035;-60
2022/03/01 07:46:46;;;;;;;14.13;6.85;;;;;;;15.97;32.97;101317.06;4971615;28;20077;-60
2022/03/01 07:49:12;;;;;;;12.25;6.47;;;;;;;16.02;32.59;101309.75;4967018;28;20080;-60
2022/03/01 07:51:41;;;;;;;14.63;6.53;;;;;;;16.68;32.25;101317.25;4971530;28;20109;-60
2022/03/01 07:54:06;;;;;;;14.65;7.15;;;;;;;16.91;30.96;101318.16;4963168;28;20030;-60
2022/03/01 07:56:32;;;;;;;14.57;7.30;;;;;;;17.58;31.36;101302.94;4955063;28;20097;-60
2022/03/01 07:58:58;;;;;;;15.20;6.80;;;;;;;18.00;30.81;101294.91;4952499;28;20027;-60
2022/03/01 08:01:23;;;;;;;22.55;7.65;;;;;;;18.26;30.09;101298.22;4952191;28;20043;-60
2022/03/01 08:03:49;;;;;;;13.82;7.05;;;;;;;18.79;29.99;101297.66;4966981;28;20487;-60
2022/03/01 08:06:18;;;;;;;15.43;7.00;;;;;;;19.01;29.71;101309.22;4970821;28;20027;-60
2022/03/01 08:08:43;;;;;;;13.88;6.88;;;;;;;19.18;28.54;101307.47;4971348;28;20034;-60
2022/03/01 08:11:10;;;;;;;17.48;7.60;;;;;;;18.89;29.19;101294.50;4970745;28;20026;-60
2022/03/01 08:13:36;;;;;;;12.63;6.65;;;;;;;18.57;29.60;101297.75;4970926;28;20336;-60
2022/03/01 08:16:03;;;;;;;12.90;6.70;;;;;;;18.35;29.03;101303.19;4970937;28;20030;-62
2022/03/01 08:18:29;;;;;;;13.18;6.25;;;;;;;18.34;29.98;101306.84;4968115;28;20242;-60
2022/03/01 08:20:55;;;;;;;14.20;6.95;;;;;;;18.24;29.91;101300.09;4970303;28;20027;-62
2022/03/01 08:23:20;;;;;;;13.20;7.72;;;;;;;18.38;29.87;101310.28;4970041;28;20102;-60
2022/03/01 08:25:46;;;;;;;17.00;7.18;;;;;;;18.11;30.51;101309.66;4969381;28;20369;-61
2022/03/01 08:28:12;;;;;;;12.65;6.40;;;;;;;18.23;29.64;101313.66;4969913;28;20503;-61
2022/03/01 08:30:38;;;;;;;17.95;7.63;;;;;;;17.87;30.08;101312.53;4969487;28;20066;-61
2022/03/01 08:33:04;;;;;;;19.42;6.68;;;;;;;17.60;30.60;101305.56;4968912;28;20030;-61
2022/03/01 08:35:34;;;;;;;14.70;6.15;;;;;;;17.28;31.27;101314.88;4970215;28;20109;-61
2022/03/01 08:38:02;;;;;;;16.02;6.32;;;;;;;16.92;31.34;101309.13;4969280;28;20122;-61
2022/03/01 08:40:37;;;;;;;15.68;6.75;;;;;;;16.47;32.56;101308.16;4968855;28;20607;-61
2022/03/01 08:43:04;;;;;;;17.95;6.78;;;;;;;17.00;32.05;101301.66;4959194;28;20049;-61
2022/03/01 08:45:30;;;;;;;12.55;5.63;;;;;;;17.10;31.24;101307.53;4967625;28;20038;-61
2022/03/01 08:47:55;;;;;;;12.25;8.15;;;;;;;17.39;31.26;101301.03;4969751;28;20027;-61
2022/03/01 08:50:21;;;;;;;14.95;7.25;;;;;;;17.37;31.06;101303.78;4969763;28;20038;-62
2022/03/01 08:52:50;;;;;;;12.77;6.97;;;;;;;17.49;31.00;101294.38;4968829;28;20124;-61
2022/03/01 08:55:16;;;;;;;13.77;6.38;;;;;;;17.88;30.24;101296.31;4969419;28;20027;-62
2022/03/01 08:57:41;;;;;;;13.70;7.55;;;;;;;17.67;30.67;101299.91;4969132;28;20391;-62
2022/03/01 09:00:09;;;;;;;12.90;7.13;;;;;;;17.69;29.92;101299.81;4968761;28;20486;-62
2022/03/01 09:02:35;;;;;;;13.60;6.82;;;;;;;17.46;30.84;101292.66;4967390;28;20123;-62
2022/03/01 09:05:01;;;;;;;18.92;7.32;;;;;;;17.10;30.43;101297.66;4965875;28;20043;-62
2022/03/01 09:07:26;;;;;;;14.52;7.35;;;;;;;16.42;31.41;101302.06;4970323;28;20034;-61
2022/03/01 09:09:52;;;;;;;12.23;6.13;;;;;;;16.93;31.01;101299.28;4969546;28;20033;-60
2022/03/01 09:12:17;;;;;;;15.15;6.97;;;;;;;16.62;32.22;101312.97;4968815;28;20029;-61
2022/03/01 09:14:43;;;;;;;12.65;6.15;;;;;;;16.16;32.45;101312.81;4969253;28;20035;-61
2022/03/01 09:17:08;;;;;;;13.75;6.45;;;;;;;16.28;31.91;101311.50;4930893;28;1148323;-61
2022/03/01 09:19:34;;;;;;;14.65;7.43;;;;;;;16.05;31.99;101288.16;4970821;28;20038;-61
2022/03/01 09:21:59;;;;;;;11.82;6.57;;;;;;;16.34;31.60;101312.16;4970464;28;20177;-61
2022/03/01 09:24:25;;;;;;;13.05;6.53;;;;;;;16.11;31.87;101308.56;4970802;28;20427;-61
2022/03/01 09:26:50;;;;;;;16.40;6.95;;;;;;;15.78;33.78;101314.13;4971300;28;20055;-61
2022/03/01 09:29:16;;;;;;;13.98;6.60;;;;;;;15.73;33.69;101318.75;4970317;28;20023;-61
2022/03/01 09:31:41;;;;;;;12.60;6.80;;;;;;;15.29;34.46;101318.38;4969910;28;20042;-61
2022/03/01 09:34:07;;;;;;;15.48;6.85;;;;;;;14.92;34.35;101324.00;4970682;28;20233;-61
2022/03/01 09:36:32;;;;;;;14.23;6.65;;;;;;;14.60;35.20;101316.00;4971023;28;20034;-61
2022/03/01 09:38:58;;;;;;;13.00;7.13;;;;;;;14.63;35.25;101317.75;4969383;28;20487;-61
2022/03/01 09:41:23;;;;;;;13.13;7.88;;;;;;;14.62;34.60;101316.84;4970613;28;20166;-60
2022/03/01 09:43:52;;;;;;;14.60;7.25;;;;;;;14.54;34.41;101318.88;4970987;28;20030;-61
2022/03/01 09:46:17;;;;;;;14.57;6.97;;;;;;;15.00;35.42;101313.03;4970884;28;20018;-61
2022/03/01 09:48:43;;;;;;;12.18;6.97;;;;;;;15.59;33.39;101294.22;4968467;28;20545;-61
2022/03/01 09:51:08;;;;;;;12.50;6.72;;;;;;;15.63;34.62;101295.00;4969434;28;20484;-61
2022/03/01 09:53:34;;;;;;;14.68;7.25;;;;;;;15.57;32.49;101296.06;4970591;28;20495;-61
2022/03/01 09:56:02;;;;;;;14.27;6.97;;;;;;;15.40;33.87;101294.84;4970572;28;20102;-60
2022/03/01 09:58:27;;;;;;;14.70;7.25;;;;;;;15.06;33.42;101305.69;4970131;28;20428;-60
2022/03/01 10:00:53;;;;;;;12.48;6.10;;;;;;;14.72;34.64;101304.94;4969690;28;20085;-60
2022/03/01 10:03:20;;;;;;;14.48;7.78;;;;;;;14.69;35.96;101298.81;4970303;28;20054;-61
2022/03/01 10:05:46;;;;;;;15.48;7.55;;;;;;;14.88;35.34;101300.00;4970196;28;20019;-61
2022/03/01 10:08:14;;;;;;;13.23;6.60;;;;;;;14.87;34.75;101288.44;4970779;28;20015;-61
2022/03/01 10:10:49;;;;;;;12.85;7.45;;;;;;;15.01;36.00;101286.19;4968997;28;20105;-61
2022/03/01 10:13:21;;;;;;;16.17;6.97;;;;;;;15.20;33.01;101294.56;4969961;28;20030;-61
2022/03/01 10:15:50;;;;;;;13.82;6.85;;;;;;;15.38;33.62;101276.09;4970603;28;20057;-61
2022/03/01 10:18:16;;;;;;;14.82;8.00;;;;;;;16.14;33.39;101285.16;4973712;28;20043;-61
2022/03/01 10:20:44;;;;;;;14.43;5.93;;;;;;;16.62;32.60;101285.25;4974000;28;20070;-61
2022/03/01 10:23:11;;;;;;;14.30;7.13;;;;;;;16.88;31.43;101285.13;4973963;28;20038;-61
2022/03/01 10:25:39;;;;;;;13.00;6.65;;;;;;;16.51;31.79;101287.41;4973868;28;20114;-61
2022/03/01 10:28:06;;;;;;;10.70;6.45;;;;;;;16.24;32.00;101283.03;4973432;28;20115;-61
2022/03/01 10:30:34;;;;;;;13.07;8.00;;;;;;;15.74;32.80;101285.66;4972841;28;20035;-61
2022/03/01 10:33:11;;;;;;;11.98;6.65;;;;;;;15.55;33.18;101281.81;4973685;28;20161;-61
2022/03/01 10:35:38;;;;;;;11.93;6.35;;;;;;;15.32;33.62;101284.31;4973734;28;20034;-61
2022/03/01 10:38:05;;;;;;;12.82;6.80;;;;;;;15.47;33.46;101291.91;4974010;28;20390;-61
2022/03/01 10:40:31;;;;;;;14.90;6.82;;;;;;;15.42;32.88;101291.19;4971643;28;20514;-61
2022/03/01 10:43:04;;;;;;;15.05;7.03;;;;;;;14.88;32.54;101291.97;4973518;28;20034;-61
2022/03/01 10:45:38;;;;;;;11.52;7.03;;;;;;;14.49;34.40;101294.03;4970371;28;20505;-61
2022/03/01 10:48:05;;;;;;;13.77;7.20;;;;;;;14.47;35.66;101295.84;4973492;28;20026;-60
2022/03/01 10:50:31;;;;;;;12.95;6.40;;;;;;;14.50;35.55;101290.41;4972266;28;20034;-60
2022/03/01 10:52:56;;;;;;;14.15;7.65;;;;;;;14.93;34.46;101290.03;4973710;28;20491;-60
2022/03/01 10:55:23;;;;;;;14.35;7.18;;;;;;;14.87;34.05;101285.75;4973351;28;20031;-60
2022/03/01 10:58:11;;;;;;;13.18;7.35;;;;;;;15.13;34.51;101291.19;4973006;28;20412;-60
2022/03/01 11:00:38;;;;;;;13.82;6.60;;;;;;;15.44;34.16;101281.28;4972011;28;20085;-61
2022/03/01 11:03:08;;;;;;;13.73;6.95;;;;;;;15.34;32.10;101282.47;4973274;28;20034;-61
2022/03/01 11:05:35;;;;;;;14.23;6.82;;;;;;;15.89;33.58;101276.22;4971955;28;20069;-61
2022/03/01 11:08:08;;;;;;;13.85;7.28;;;;;;;16.30;32.81;101272.06;4972705;28;20023;-61
2022/03/01 11:10:36;;;;;;;;;;;;;;;16.68;29.91;101283.19;4971863;28;20042;-61
2022/03/01 11:13:02;;;;;;;11.48;6.00;;;;;;;16.71;30.15;101271.44;4973476;28;20036;-61
2022/03/01 11:15:45;;;;;;;14.40;6.78;;;;;;;16.70;32.37;101267.00;4973089;28;20109;-62
2022/03/01 11:18:24;;;;;;;13.90;6.88;;;;;;;16.76;31.12;101256.03;4972311;28;20476;-61
2022/03/01 11:20:52;;;;;;;14.65;6.78;;;;;;;17.09;31.43;101255.59;4972310;28;20510;-61